sensor_id;sensor_type;location;lat;lon;timestamp;P1;durP1;ratioP1;P2;durP2;ratioP2
3755;SDS011;1893;52.526;13.360;2022-09-17T00:00:21;4.63;;;2.80;;
3755;SDS011;1893;52.526;13.360;2022-09-17T00:02:50;4.03;;;2.70;;
3755;SDS011;1893;52.526;13.360;2022-09-17T00:05:19;12.13;;;3.47;;
3755;SDS011;1893;52.526;13.360;2022-09-17T00:07:46;4.57;;;2.83;;
3755;SDS011;1893;52.526;13.360;2022-09-17T00:10:11;8.13;;;2.90;;
3755;SDS011;1893;52.526;13.360;2022-09-17T00:12:37;8.93;;;3.20;;
3755;SDS011;1893;52.526;13.360;2022-09-17T00:15:02;5.50;;;3.30;;
3755;SDS011;1893;52.526;13.360;2022-09-17T00:17:28;7.63;;;4.20;;
3755;SDS011;1893;52.526;13.360;2022-09-17T00:19:54;10.93;;;3.50;;
3755;SDS011;1893;52.526;13.360;2022-09-17T00:22:19;12.47;;;4.00;;
3755;SDS011;1893;52.526;13.360;2022-09-17T00:24:45;10.63;;;5.00;;
3755;SDS011;1893;52.526;13.360;2022-09-17T00:27:10;12.23;;;3.87;;
3755;SDS011;1893;52.526;13.360;2022-09-17T00:29:36;9.43;;;4.03;;
3755;SDS011;1893;52.526;13.360;2022-09-17T00:32:01;10.30;;;3.50;;
3755;SDS011;1893;52.526;13.360;2022-09-17T00:34:27;5.30;;;3.10;;
3755;SDS011;1893;52.526;13.360;2022-09-17T00:36:52;9.80;;;3.77;;
3755;SDS011;1893;52.526;13.360;2022-09-17T00:39:18;6.70;;;3.20;;
3755;SDS011;1893;52.526;13.360;2022-09-17T00:41:43;7.53;;;4.23;;
3755;SDS011;1893;52.526;13.360;2022-09-17T00:47:04;10.07;;;3.00;;
3755;SDS011;1893;52.526;13.360;2022-09-17T00:49:57;10.27;;;3.17;;
3755;SDS011;1893;52.526;13.360;2022-09-17T00:52:31;6.60;;;3.03;;
3755;SDS011;1893;52.526;13.360;2022-09-17T00:55:03;4.23;;;3.10;;
3755;SDS011;1893;52.526;13.360;2022-09-17T00:57:51;6.90;;;3.30;;
3755;SDS011;1893;52.526;13.360;2022-09-17T01:00:19;10.60;;;4.07;;
3755;SDS011;1893;52.526;13.360;2022-09-17T01:02:45;7.13;;;3.00;;
3755;SDS011;1893;52.526;13.360;2022-09-17T01:05:11;4.00;;;2.30;;
3755;SDS011;1893;52.526;13.360;2022-09-17T01:10:51;4.47;;;2.07;;
3755;SDS011;1893;52.526;13.360;2022-09-17T01:13:56;10.47;;;2.87;;
3755;SDS011;1893;52.526;13.360;2022-09-17T01:17:12;4.83;;;2.33;;
3755;SDS011;1893;52.526;13.360;2022-09-17T01:33:59;6.60;;;2.67;;
3755;SDS011;1893;52.526;13.360;2022-09-17T01:45:07;12.20;;;2.80;;
3755;SDS011;1893;52.526;13.360;2022-09-17T01:47:59;9.10;;;3.40;;
3755;SDS011;1893;52.526;13.360;2022-09-17T01:53:37;4.70;;;2.83;;
3755;SDS011;1893;52.526;13.360;2022-09-17T01:56:09;5.60;;;2.60;;
3755;SDS011;1893;52.526;13.360;2022-09-17T01:58:40;7.30;;;2.43;;
3755;SDS011;1893;52.526;13.360;2022-09-17T02:01:12;3.50;;;2.43;;
3755;SDS011;1893;52.526;13.360;2022-09-17T02:03:41;10.37;;;3.67;;
3755;SDS011;1893;52.526;13.360;2022-09-17T02:06:16;8.23;;;2.87;;
3755;SDS011;1893;52.526;13.360;2022-09-17T02:08:50;13.33;;;3.07;;
3755;SDS011;1893;52.526;13.360;2022-09-17T02:11:32;5.83;;;2.53;;
3755;SDS011;1893;52.526;13.360;2022-09-17T02:14:05;10.50;;;3.07;;
3755;SDS011;1893;52.526;13.360;2022-09-17T02:16:53;8.33;;;3.17;;
3755;SDS011;1893;52.526;13.360;2022-09-17T02:19:28;10.57;;;3.10;;
3755;SDS011;1893;52.526;13.360;2022-09-17T02:22:08;7.77;;;2.70;;
3755;SDS011;1893;52.526;13.360;2022-09-17T02:27:50;10.10;;;2.97;;
3755;SDS011;1893;52.526;13.360;2022-09-17T02:30:22;7.47;;;3.30;;
3755;SDS011;1893;52.526;13.360;2022-09-17T02:32:48;14.93;;;3.33;;
3755;SDS011;1893;52.526;13.360;2022-09-17T02:35:14;7.63;;;3.40;;
3755;SDS011;1893;52.526;13.360;2022-09-17T02:37:40;12.20;;;4.17;;
3755;SDS011;1893;52.526;13.360;2022-09-17T02:40:06;12.60;;;3.40;;
3755;SDS011;1893;52.526;13.360;2022-09-17T02:42:38;7.17;;;3.20;;
3755;SDS011;1893;52.526;13.360;2022-09-17T02:45:47;6.50;;;3.40;;
3755;SDS011;1893;52.526;13.360;2022-09-17T02:54:23;8.27;;;3.90;;
3755;SDS011;1893;52.526;13.360;2022-09-17T02:57:04;17.10;;;4.33;;
3755;SDS011;1893;52.526;13.360;2022-09-17T03:00:05;7.80;;;3.33;;
3755;SDS011;1893;52.526;13.360;2022-09-17T03:05:25;10.67;;;4.47;;
3755;SDS011;1893;52.526;13.360;2022-09-17T03:07:53;9.93;;;4.73;;
3755;SDS011;1893;52.526;13.360;2022-09-17T03:10:21;10.40;;;3.70;;
3755;SDS011;1893;52.526;13.360;2022-09-17T03:12:46;7.93;;;3.47;;
3755;SDS011;1893;52.526;13.360;2022-09-17T03:15:12;9.70;;;2.83;;
3755;SDS011;1893;52.526;13.360;2022-09-17T03:17:38;7.83;;;2.97;;
3755;SDS011;1893;52.526;13.360;2022-09-17T03:20:03;7.67;;;3.97;;
3755;SDS011;1893;52.526;13.360;2022-09-17T03:22:30;7.27;;;3.17;;
3755;SDS011;1893;52.526;13.360;2022-09-17T03:24:55;8.93;;;3.50;;
3755;SDS011;1893;52.526;13.360;2022-09-17T03:27:21;8.30;;;3.40;;
3755;SDS011;1893;52.526;13.360;2022-09-17T03:29:47;7.27;;;2.90;;
3755;SDS011;1893;52.526;13.360;2022-09-17T03:32:12;11.50;;;3.00;;
3755;SDS011;1893;52.526;13.360;2022-09-17T03:34:38;16.50;;;2.80;;
3755;SDS011;1893;52.526;13.360;2022-09-17T03:37:03;6.23;;;3.13;;
3755;SDS011;1893;52.526;13.360;2022-09-17T03:39:29;8.63;;;2.87;;
3755;SDS011;1893;52.526;13.360;2022-09-17T03:41:55;5.60;;;3.80;;
3755;SDS011;1893;52.526;13.360;2022-09-17T03:44:20;9.80;;;2.63;;
3755;SDS011;1893;52.526;13.360;2022-09-17T03:46:47;11.27;;;2.70;;
3755;SDS011;1893;52.526;13.360;2022-09-17T03:49:13;8.97;;;3.13;;
3755;SDS011;1893;52.526;13.360;2022-09-17T03:51:39;9.90;;;3.30;;
3755;SDS011;1893;52.526;13.360;2022-09-17T03:54:05;11.10;;;2.80;;
3755;SDS011;1893;52.526;13.360;2022-09-17T03:56:31;10.30;;;2.50;;
3755;SDS011;1893;52.526;13.360;2022-09-17T03:58:57;14.50;;;2.83;;
3755;SDS011;1893;52.526;13.360;2022-09-17T04:01:23;9.40;;;3.03;;
3755;SDS011;1893;52.526;13.360;2022-09-17T04:03:49;18.30;;;2.77;;
3755;SDS011;1893;52.526;13.360;2022-09-17T04:06:15;11.20;;;3.90;;
3755;SDS011;1893;52.526;13.360;2022-09-17T04:08:40;9.83;;;2.67;;
3755;SDS011;1893;52.526;13.360;2022-09-17T04:11:07;8.23;;;2.63;;
3755;SDS011;1893;52.526;13.360;2022-09-17T04:13:34;12.10;;;4.30;;
3755;SDS011;1893;52.526;13.360;2022-09-17T04:15:59;6.83;;;3.60;;
3755;SDS011;1893;52.526;13.360;2022-09-17T04:18:25;11.30;;;3.77;;
3755;SDS011;1893;52.526;13.360;2022-09-17T04:20:51;9.23;;;3.70;;
3755;SDS011;1893;52.526;13.360;2022-09-17T04:23:17;10.97;;;2.83;;
3755;SDS011;1893;52.526;13.360;2022-09-17T04:25:43;14.27;;;3.50;;
3755;SDS011;1893;52.526;13.360;2022-09-17T04:28:08;14.77;;;3.00;;
3755;SDS011;1893;52.526;13.360;2022-09-17T04:30:34;12.57;;;2.83;;
3755;SDS011;1893;52.526;13.360;2022-09-17T04:33:00;12.17;;;2.83;;
3755;SDS011;1893;52.526;13.360;2022-09-17T04:35:25;8.90;;;3.17;;
3755;SDS011;1893;52.526;13.360;2022-09-17T04:37:52;11.03;;;2.67;;
3755;SDS011;1893;52.526;13.360;2022-09-17T04:40:21;5.40;;;2.30;;
3755;SDS011;1893;52.526;13.360;2022-09-17T04:42:50;14.80;;;2.80;;
3755;SDS011;1893;52.526;13.360;2022-09-17T04:45:17;8.30;;;2.47;;
3755;SDS011;1893;52.526;13.360;2022-09-17T04:47:42;15.27;;;3.20;;
3755;SDS011;1893;52.526;13.360;2022-09-17T04:50:08;8.40;;;2.20;;
3755;SDS011;1893;52.526;13.360;2022-09-17T04:52:34;10.00;;;2.20;;
3755;SDS011;1893;52.526;13.360;2022-09-17T04:54:59;8.27;;;2.60;;
3755;SDS011;1893;52.526;13.360;2022-09-17T04:57:25;9.30;;;2.20;;
3755;SDS011;1893;52.526;13.360;2022-09-17T04:59:51;8.00;;;2.50;;
3755;SDS011;1893;52.526;13.360;2022-09-17T05:02:17;12.37;;;3.60;;
3755;SDS011;1893;52.526;13.360;2022-09-17T05:04:43;17.13;;;2.90;;
3755;SDS011;1893;52.526;13.360;2022-09-17T05:07:08;8.40;;;2.67;;
3755;SDS011;1893;52.526;13.360;2022-09-17T05:09:34;5.97;;;2.23;;
3755;SDS011;1893;52.526;13.360;2022-09-17T05:11:59;6.13;;;2.30;;
3755;SDS011;1893;52.526;13.360;2022-09-17T05:14:25;5.80;;;2.30;;
3755;SDS011;1893;52.526;13.360;2022-09-17T05:16:50;6.20;;;2.07;;
3755;SDS011;1893;52.526;13.360;2022-09-17T05:19:16;10.23;;;2.87;;
3755;SDS011;1893;52.526;13.360;2022-09-17T05:21:41;6.70;;;3.03;;
3755;SDS011;1893;52.526;13.360;2022-09-17T05:24:07;9.33;;;2.63;;
3755;SDS011;1893;52.526;13.360;2022-09-17T05:26:33;9.27;;;3.50;;
3755;SDS011;1893;52.526;13.360;2022-09-17T05:28:58;9.50;;;2.10;;
3755;SDS011;1893;52.526;13.360;2022-09-17T05:31:24;7.90;;;2.87;;
3755;SDS011;1893;52.526;13.360;2022-09-17T05:33:49;6.70;;;2.20;;
3755;SDS011;1893;52.526;13.360;2022-09-17T05:36:15;9.53;;;2.07;;
3755;SDS011;1893;52.526;13.360;2022-09-17T05:38:41;10.57;;;2.40;;
3755;SDS011;1893;52.526;13.360;2022-09-17T05:41:07;7.70;;;4.00;;
3755;SDS011;1893;52.526;13.360;2022-09-17T05:43:32;6.30;;;2.73;;
3755;SDS011;1893;52.526;13.360;2022-09-17T05:46:02;10.67;;;2.93;;
3755;SDS011;1893;52.526;13.360;2022-09-17T05:48:28;8.03;;;3.03;;
3755;SDS011;1893;52.526;13.360;2022-09-17T05:50:54;6.37;;;2.80;;
3755;SDS011;1893;52.526;13.360;2022-09-17T05:53:20;5.33;;;2.90;;
3755;SDS011;1893;52.526;13.360;2022-09-17T05:55:45;5.40;;;2.80;;
3755;SDS011;1893;52.526;13.360;2022-09-17T05:58:15;7.03;;;2.87;;
3755;SDS011;1893;52.526;13.360;2022-09-17T06:00:42;5.03;;;2.80;;
3755;SDS011;1893;52.526;13.360;2022-09-17T06:03:10;18.23;;;4.10;;
3755;SDS011;1893;52.526;13.360;2022-09-17T06:05:36;7.10;;;3.17;;
3755;SDS011;1893;52.526;13.360;2022-09-17T06:08:02;7.03;;;3.63;;
3755;SDS011;1893;52.526;13.360;2022-09-17T06:10:27;12.93;;;5.00;;
3755;SDS011;1893;52.526;13.360;2022-09-17T06:12:57;28.63;;;5.07;;
3755;SDS011;1893;52.526;13.360;2022-09-17T06:15:23;20.00;;;5.30;;
3755;SDS011;1893;52.526;13.360;2022-09-17T06:17:50;12.27;;;5.03;;
3755;SDS011;1893;52.526;13.360;2022-09-17T06:20:16;18.90;;;5.00;;
3755;SDS011;1893;52.526;13.360;2022-09-17T06:22:42;17.80;;;6.00;;
3755;SDS011;1893;52.526;13.360;2022-09-17T06:25:08;10.57;;;5.10;;
3755;SDS011;1893;52.526;13.360;2022-09-17T06:27:34;14.93;;;6.53;;
3755;SDS011;1893;52.526;13.360;2022-09-17T06:30:00;17.80;;;5.43;;
3755;SDS011;1893;52.526;13.360;2022-09-17T06:32:26;9.13;;;4.80;;
3755;SDS011;1893;52.526;13.360;2022-09-17T06:34:52;11.40;;;5.93;;
3755;SDS011;1893;52.526;13.360;2022-09-17T06:37:19;14.30;;;5.60;;
3755;SDS011;1893;52.526;13.360;2022-09-17T06:39:45;17.07;;;6.07;;
3755;SDS011;1893;52.526;13.360;2022-09-17T06:42:11;19.23;;;6.17;;
3755;SDS011;1893;52.526;13.360;2022-09-17T06:44:37;19.40;;;5.57;;
3755;SDS011;1893;52.526;13.360;2022-09-17T06:47:02;12.90;;;4.13;;
3755;SDS011;1893;52.526;13.360;2022-09-17T06:49:28;10.60;;;4.60;;
3755;SDS011;1893;52.526;13.360;2022-09-17T06:51:55;20.50;;;4.73;;
3755;SDS011;1893;52.526;13.360;2022-09-17T06:54:20;14.73;;;5.00;;
3755;SDS011;1893;52.526;13.360;2022-09-17T06:56:46;20.00;;;4.93;;
3755;SDS011;1893;52.526;13.360;2022-09-17T06:59:12;20.40;;;4.90;;
3755;SDS011;1893;52.526;13.360;2022-09-17T07:01:37;19.83;;;5.03;;
3755;SDS011;1893;52.526;13.360;2022-09-17T07:04:03;11.70;;;4.37;;
3755;SDS011;1893;52.526;13.360;2022-09-17T07:06:28;18.87;;;5.60;;
3755;SDS011;1893;52.526;13.360;2022-09-17T07:08:54;15.40;;;5.63;;
3755;SDS011;1893;52.526;13.360;2022-09-17T07:11:20;17.53;;;4.07;;
3755;SDS011;1893;52.526;13.360;2022-09-17T07:13:45;19.43;;;4.70;;
3755;SDS011;1893;52.526;13.360;2022-09-17T07:16:12;18.73;;;4.70;;
3755;SDS011;1893;52.526;13.360;2022-09-17T07:18:37;19.37;;;4.70;;
3755;SDS011;1893;52.526;13.360;2022-09-17T07:21:04;12.80;;;3.70;;
3755;SDS011;1893;52.526;13.360;2022-09-17T07:23:31;13.83;;;4.00;;
3755;SDS011;1893;52.526;13.360;2022-09-17T07:25:59;18.27;;;4.60;;
3755;SDS011;1893;52.526;13.360;2022-09-17T07:28:32;10.73;;;3.67;;
3755;SDS011;1893;52.526;13.360;2022-09-17T07:31:01;12.93;;;3.60;;
3755;SDS011;1893;52.526;13.360;2022-09-17T07:33:28;11.40;;;4.03;;
3755;SDS011;1893;52.526;13.360;2022-09-17T07:35:54;11.30;;;3.10;;
3755;SDS011;1893;52.526;13.360;2022-09-17T07:38:21;12.83;;;3.47;;
3755;SDS011;1893;52.526;13.360;2022-09-17T07:40:57;17.57;;;4.50;;
3755;SDS011;1893;52.526;13.360;2022-09-17T07:43:31;15.13;;;4.33;;
3755;SDS011;1893;52.526;13.360;2022-09-17T07:45:58;10.03;;;2.70;;
3755;SDS011;1893;52.526;13.360;2022-09-17T07:48:26;7.60;;;2.67;;
3755;SDS011;1893;52.526;13.360;2022-09-17T07:50:52;14.50;;;5.27;;
3755;SDS011;1893;52.526;13.360;2022-09-17T07:53:18;9.20;;;2.80;;
3755;SDS011;1893;52.526;13.360;2022-09-17T07:55:57;14.83;;;3.10;;
3755;SDS011;1893;52.526;13.360;2022-09-17T07:58:31;14.00;;;3.37;;
3755;SDS011;1893;52.526;13.360;2022-09-17T08:01:00;13.97;;;2.33;;
3755;SDS011;1893;52.526;13.360;2022-09-17T08:03:27;11.73;;;3.37;;
3755;SDS011;1893;52.526;13.360;2022-09-17T08:05:52;17.87;;;3.07;;
3755;SDS011;1893;52.526;13.360;2022-09-17T08:08:18;11.90;;;2.90;;
3755;SDS011;1893;52.526;13.360;2022-09-17T08:10:44;13.33;;;3.07;;
3755;SDS011;1893;52.526;13.360;2022-09-17T08:13:10;13.03;;;2.97;;
3755;SDS011;1893;52.526;13.360;2022-09-17T08:15:35;14.77;;;3.13;;
3755;SDS011;1893;52.526;13.360;2022-09-17T08:18:01;10.60;;;2.70;;
3755;SDS011;1893;52.526;13.360;2022-09-17T08:20:26;11.93;;;2.80;;
3755;SDS011;1893;52.526;13.360;2022-09-17T08:22:58;8.23;;;2.53;;
3755;SDS011;1893;52.526;13.360;2022-09-17T08:25:25;7.00;;;1.90;;
3755;SDS011;1893;52.526;13.360;2022-09-17T08:27:54;11.87;;;3.00;;
3755;SDS011;1893;52.526;13.360;2022-09-17T08:30:20;7.13;;;2.17;;
3755;SDS011;1893;52.526;13.360;2022-09-17T08:32:46;8.33;;;1.80;;
3755;SDS011;1893;52.526;13.360;2022-09-17T08:35:12;7.30;;;2.80;;
3755;SDS011;1893;52.526;13.360;2022-09-17T08:37:38;6.80;;;1.83;;
3755;SDS011;1893;52.526;13.360;2022-09-17T08:40:03;8.57;;;2.37;;
3755;SDS011;1893;52.526;13.360;2022-09-17T08:42:30;9.10;;;2.47;;
3755;SDS011;1893;52.526;13.360;2022-09-17T08:44:57;9.40;;;2.33;;
3755;SDS011;1893;52.526;13.360;2022-09-17T08:47:27;9.87;;;2.70;;
3755;SDS011;1893;52.526;13.360;2022-09-17T08:50:03;26.67;;;5.60;;
3755;SDS011;1893;52.526;13.360;2022-09-17T09:07:11;11.10;;;2.27;;
3755;SDS011;1893;52.526;13.360;2022-09-17T09:09:24;6.60;;;1.60;;
3755;SDS011;1893;52.526;13.360;2022-09-17T09:12:02;5.27;;;1.90;;
3755;SDS011;1893;52.526;13.360;2022-09-17T09:14:50;9.30;;;3.00;;
3755;SDS011;1893;52.526;13.360;2022-09-17T09:17:17;10.47;;;2.03;;
3755;SDS011;1893;52.526;13.360;2022-09-17T09:19:45;6.40;;;2.20;;
3755;SDS011;1893;52.526;13.360;2022-09-17T09:24:52;17.40;;;2.70;;
3755;SDS011;1893;52.526;13.360;2022-09-17T09:30:29;6.93;;;2.53;;
3755;SDS011;1893;52.526;13.360;2022-09-17T09:33:26;5.30;;;2.00;;
3755;SDS011;1893;52.526;13.360;2022-09-17T09:35:55;7.10;;;2.57;;
3755;SDS011;1893;52.526;13.360;2022-09-17T09:41:11;9.17;;;1.70;;
3755;SDS011;1893;52.526;13.360;2022-09-17T09:43:42;8.90;;;2.57;;
3755;SDS011;1893;52.526;13.360;2022-09-17T09:46:52;10.00;;;2.60;;
3755;SDS011;1893;52.526;13.360;2022-09-17T10:00:57;8.03;;;2.40;;
3755;SDS011;1893;52.526;13.360;2022-09-17T10:05:59;3.43;;;1.43;;
3755;SDS011;1893;52.526;13.360;2022-09-17T10:08:33;5.37;;;1.77;;
3755;SDS011;1893;52.526;13.360;2022-09-17T10:11:02;12.17;;;2.77;;
3755;SDS011;1893;52.526;13.360;2022-09-17T10:13:43;9.33;;;1.80;;
3755;SDS011;1893;52.526;13.360;2022-09-17T10:16:16;8.33;;;1.50;;
3755;SDS011;1893;52.526;13.360;2022-09-17T10:18:51;9.37;;;2.87;;
3755;SDS011;1893;52.526;13.360;2022-09-17T10:21:38;5.53;;;1.93;;
3755;SDS011;1893;52.526;13.360;2022-09-17T10:24:21;5.17;;;1.67;;
3755;SDS011;1893;52.526;13.360;2022-09-17T10:27:14;5.63;;;1.40;;
3755;SDS011;1893;52.526;13.360;2022-09-17T10:29:41;11.50;;;1.87;;
3755;SDS011;1893;52.526;13.360;2022-09-17T10:32:15;6.70;;;1.90;;
3755;SDS011;1893;52.526;13.360;2022-09-17T10:35:27;5.93;;;1.97;;
3755;SDS011;1893;52.526;13.360;2022-09-17T10:37:46;9.60;;;2.60;;
3755;SDS011;1893;52.526;13.360;2022-09-17T10:42:44;9.50;;;2.57;;
3755;SDS011;1893;52.526;13.360;2022-09-17T10:45:23;7.93;;;2.47;;
3755;SDS011;1893;52.526;13.360;2022-09-17T10:47:54;12.97;;;3.37;;
3755;SDS011;1893;52.526;13.360;2022-09-17T10:50:31;8.10;;;2.20;;
3755;SDS011;1893;52.526;13.360;2022-09-17T10:53:05;14.67;;;2.70;;
3755;SDS011;1893;52.526;13.360;2022-09-17T10:58:26;13.80;;;2.33;;
3755;SDS011;1893;52.526;13.360;2022-09-17T11:01:41;6.90;;;1.47;;
3755;SDS011;1893;52.526;13.360;2022-09-17T11:04:33;4.80;;;1.90;;
3755;SDS011;1893;52.526;13.360;2022-09-17T11:07:16;8.20;;;2.20;;
3755;SDS011;1893;52.526;13.360;2022-09-17T11:09:50;5.00;;;1.53;;
3755;SDS011;1893;52.526;13.360;2022-09-17T11:12:27;1.80;;;1.40;;
3755;SDS011;1893;52.526;13.360;2022-09-17T11:20:58;6.00;;;1.30;;
3755;SDS011;1893;52.526;13.360;2022-09-17T11:23:57;9.63;;;1.90;;
3755;SDS011;1893;52.526;13.360;2022-09-17T11:26:58;4.63;;;1.33;;
3755;SDS011;1893;52.526;13.360;2022-09-17T11:39:56;9.53;;;1.50;;
3755;SDS011;1893;52.526;13.360;2022-09-17T11:42:32;7.90;;;1.90;;
3755;SDS011;1893;52.526;13.360;2022-09-17T11:45:05;3.73;;;1.40;;
3755;SDS011;1893;52.526;13.360;2022-09-17T11:47:50;12.00;;;1.53;;
3755;SDS011;1893;52.526;13.360;2022-09-17T11:50:50;6.00;;;1.80;;
3755;SDS011;1893;52.526;13.360;2022-09-17T11:58:27;3.73;;;1.10;;
3755;SDS011;1893;52.526;13.360;2022-09-17T12:01:00;3.97;;;1.20;;
3755;SDS011;1893;52.526;13.360;2022-09-17T12:03:35;2.47;;;1.83;;
3755;SDS011;1893;52.526;13.360;2022-09-17T12:06:10;4.67;;;1.13;;
3755;SDS011;1893;52.526;13.360;2022-09-17T12:14:17;10.53;;;1.77;;
3755;SDS011;1893;52.526;13.360;2022-09-17T12:16:48;3.77;;;0.90;;
3755;SDS011;1893;52.526;13.360;2022-09-17T12:24:46;3.10;;;1.00;;
3755;SDS011;1893;52.526;13.360;2022-09-17T12:41:15;7.03;;;1.57;;
3755;SDS011;1893;52.526;13.360;2022-09-17T12:49:52;7.70;;;1.77;;
3755;SDS011;1893;52.526;13.360;2022-09-17T12:52:42;5.37;;;1.27;;
3755;SDS011;1893;52.526;13.360;2022-09-17T12:55:33;4.50;;;0.90;;
3755;SDS011;1893;52.526;13.360;2022-09-17T12:58:08;9.87;;;2.10;;
3755;SDS011;1893;52.526;13.360;2022-09-17T13:00:46;3.37;;;1.10;;
3755;SDS011;1893;52.526;13.360;2022-09-17T13:03:18;4.53;;;1.13;;
3755;SDS011;1893;52.526;13.360;2022-09-17T13:11:25;1.50;;;1.00;;
3755;SDS011;1893;52.526;13.360;2022-09-17T13:14:26;2.20;;;0.90;;
3755;SDS011;1893;52.526;13.360;2022-09-17T13:17:16;2.77;;;1.00;;
3755;SDS011;1893;52.526;13.360;2022-09-17T13:19:46;3.53;;;1.20;;
3755;SDS011;1893;52.526;13.360;2022-09-17T13:22:20;6.93;;;1.17;;
3755;SDS011;1893;52.526;13.360;2022-09-17T13:25:00;3.57;;;1.20;;
3755;SDS011;1893;52.526;13.360;2022-09-17T13:27:28;3.47;;;1.10;;
3755;SDS011;1893;52.526;13.360;2022-09-17T13:37:36;4.43;;;1.00;;
3755;SDS011;1893;52.526;13.360;2022-09-17T13:45:32;3.87;;;1.00;;
3755;SDS011;1893;52.526;13.360;2022-09-17T13:50:37;2.43;;;1.57;;
3755;SDS011;1893;52.526;13.360;2022-09-17T13:55:40;6.40;;;1.30;;
3755;SDS011;1893;52.526;13.360;2022-09-17T14:13:48;4.37;;;1.20;;
3755;SDS011;1893;52.526;13.360;2022-09-17T14:22:23;3.73;;;1.30;;
3755;SDS011;1893;52.526;13.360;2022-09-17T14:32:06;7.53;;;1.37;;
3755;SDS011;1893;52.526;13.360;2022-09-17T14:34:35;2.63;;;0.90;;
3755;SDS011;1893;52.526;13.360;2022-09-17T14:37:01;6.17;;;1.60;;
3755;SDS011;1893;52.526;13.360;2022-09-17T14:39:28;2.30;;;0.87;;
3755;SDS011;1893;52.526;13.360;2022-09-17T14:42:01;4.43;;;1.13;;
3755;SDS011;1893;52.526;13.360;2022-09-17T14:44:30;5.20;;;1.00;;
3755;SDS011;1893;52.526;13.360;2022-09-17T14:46:59;3.47;;;1.20;;
3755;SDS011;1893;52.526;13.360;2022-09-17T14:49:31;4.23;;;0.90;;
3755;SDS011;1893;52.526;13.360;2022-09-17T14:51:58;1.20;;;0.90;;
3755;SDS011;1893;52.526;13.360;2022-09-17T14:54:26;2.63;;;0.90;;
3755;SDS011;1893;52.526;13.360;2022-09-17T15:02:25;3.37;;;1.10;;
3755;SDS011;1893;52.526;13.360;2022-09-17T15:04:54;2.70;;;0.90;;
3755;SDS011;1893;52.526;13.360;2022-09-17T15:07:20;1.63;;;0.60;;
3755;SDS011;1893;52.526;13.360;2022-09-17T15:09:46;0.97;;;0.70;;
3755;SDS011;1893;52.526;13.360;2022-09-17T15:12:14;2.23;;;0.70;;
3755;SDS011;1893;52.526;13.360;2022-09-17T15:14:42;0.70;;;0.60;;
3755;SDS011;1893;52.526;13.360;2022-09-17T15:17:12;1.17;;;0.60;;
3755;SDS011;1893;52.526;13.360;2022-09-17T15:19:40;3.67;;;0.70;;
3755;SDS011;1893;52.526;13.360;2022-09-17T15:22:09;2.60;;;1.50;;
3755;SDS011;1893;52.526;13.360;2022-09-17T15:25:41;1.20;;;0.60;;
3755;SDS011;1893;52.526;13.360;2022-09-17T15:27:47;1.93;;;0.60;;
3755;SDS011;1893;52.526;13.360;2022-09-17T15:30:18;0.70;;;0.60;;
3755;SDS011;1893;52.526;13.360;2022-09-17T15:32:55;0.90;;;0.53;;
3755;SDS011;1893;52.526;13.360;2022-09-17T15:35:26;1.33;;;0.70;;
3755;SDS011;1893;52.526;13.360;2022-09-17T15:37:56;2.00;;;0.60;;
3755;SDS011;1893;52.526;13.360;2022-09-17T15:40:25;2.30;;;0.87;;
3755;SDS011;1893;52.526;13.360;2022-09-17T15:43:13;1.30;;;0.70;;
3755;SDS011;1893;52.526;13.360;2022-09-17T15:45:41;4.10;;;0.70;;
3755;SDS011;1893;52.526;13.360;2022-09-17T15:51:14;1.03;;;0.80;;
3755;SDS011;1893;52.526;13.360;2022-09-17T15:53:55;1.30;;;0.90;;
3755;SDS011;1893;52.526;13.360;2022-09-17T15:56:29;2.00;;;1.20;;
3755;SDS011;1893;52.526;13.360;2022-09-17T15:59:03;1.90;;;0.73;;
3755;SDS011;1893;52.526;13.360;2022-09-17T16:04:27;4.17;;;0.90;;
3755;SDS011;1893;52.526;13.360;2022-09-17T16:06:57;1.97;;;0.70;;
3755;SDS011;1893;52.526;13.360;2022-09-17T16:09:46;1.80;;;0.70;;
3755;SDS011;1893;52.526;13.360;2022-09-17T16:12:18;2.03;;;0.70;;
3755;SDS011;1893;52.526;13.360;2022-09-17T16:14:46;1.63;;;0.90;;
3755;SDS011;1893;52.526;13.360;2022-09-17T16:17:20;15.73;;;1.00;;
3755;SDS011;1893;52.526;13.360;2022-09-17T16:19:46;2.80;;;0.90;;
3755;SDS011;1893;52.526;13.360;2022-09-17T16:22:11;3.63;;;0.70;;
3755;SDS011;1893;52.526;13.360;2022-09-17T16:24:37;2.00;;;0.70;;
3755;SDS011;1893;52.526;13.360;2022-09-17T16:27:03;0.90;;;0.50;;
3755;SDS011;1893;52.526;13.360;2022-09-17T16:29:29;0.70;;;0.60;;
3755;SDS011;1893;52.526;13.360;2022-09-17T16:31:55;0.90;;;0.70;;
3755;SDS011;1893;52.526;13.360;2022-09-17T16:34:20;2.10;;;0.80;;
3755;SDS011;1893;52.526;13.360;2022-09-17T16:36:46;1.90;;;0.80;;
3755;SDS011;1893;52.526;13.360;2022-09-17T16:39:13;2.97;;;0.83;;
3755;SDS011;1893;52.526;13.360;2022-09-17T16:41:39;2.20;;;0.80;;
3755;SDS011;1893;52.526;13.360;2022-09-17T16:44:04;5.27;;;0.90;;
3755;SDS011;1893;52.526;13.360;2022-09-17T16:46:30;3.73;;;0.70;;
3755;SDS011;1893;52.526;13.360;2022-09-17T16:48:56;2.20;;;0.70;;
3755;SDS011;1893;52.526;13.360;2022-09-17T16:51:21;3.33;;;0.70;;
3755;SDS011;1893;52.526;13.360;2022-09-17T16:53:46;7.43;;;0.80;;
3755;SDS011;1893;52.526;13.360;2022-09-17T16:56:14;1.47;;;0.70;;
3755;SDS011;1893;52.526;13.360;2022-09-17T16:58:39;2.20;;;0.80;;
3755;SDS011;1893;52.526;13.360;2022-09-17T17:01:12;2.83;;;1.00;;
3755;SDS011;1893;52.526;13.360;2022-09-17T17:03:39;1.23;;;0.90;;
3755;SDS011;1893;52.526;13.360;2022-09-17T17:06:05;0.90;;;0.80;;
3755;SDS011;1893;52.526;13.360;2022-09-17T17:08:39;2.00;;;1.10;;
3755;SDS011;1893;52.526;13.360;2022-09-17T17:11:04;1.50;;;0.73;;
3755;SDS011;1893;52.526;13.360;2022-09-17T17:13:30;2.30;;;0.90;;
3755;SDS011;1893;52.526;13.360;2022-09-17T17:15:55;1.23;;;0.70;;
3755;SDS011;1893;52.526;13.360;2022-09-17T17:18:21;1.80;;;0.73;;
3755;SDS011;1893;52.526;13.360;2022-09-17T17:20:47;2.70;;;0.93;;
3755;SDS011;1893;52.526;13.360;2022-09-17T17:23:13;2.87;;;1.10;;
3755;SDS011;1893;52.526;13.360;2022-09-17T17:25:39;1.97;;;1.20;;
3755;SDS011;1893;52.526;13.360;2022-09-17T17:28:04;2.83;;;1.00;;
3755;SDS011;1893;52.526;13.360;2022-09-17T17:30:30;0.90;;;0.70;;
3755;SDS011;1893;52.526;13.360;2022-09-17T17:32:56;5.47;;;1.10;;
3755;SDS011;1893;52.526;13.360;2022-09-17T17:35:24;2.57;;;1.20;;
3755;SDS011;1893;52.526;13.360;2022-09-17T17:37:49;2.33;;;0.90;;
3755;SDS011;1893;52.526;13.360;2022-09-17T17:40:15;1.60;;;0.77;;
3755;SDS011;1893;52.526;13.360;2022-09-17T17:42:41;3.13;;;1.20;;
3755;SDS011;1893;52.526;13.360;2022-09-17T17:45:08;2.30;;;0.83;;
3755;SDS011;1893;52.526;13.360;2022-09-17T17:47:34;0.87;;;0.80;;
3755;SDS011;1893;52.526;13.360;2022-09-17T17:50:00;4.87;;;0.87;;
3755;SDS011;1893;52.526;13.360;2022-09-17T17:52:26;1.77;;;0.80;;
3755;SDS011;1893;52.526;13.360;2022-09-17T17:54:52;1.60;;;0.90;;
3755;SDS011;1893;52.526;13.360;2022-09-17T17:57:17;4.40;;;0.90;;
3755;SDS011;1893;52.526;13.360;2022-09-17T17:59:43;2.00;;;0.80;;
3755;SDS011;1893;52.526;13.360;2022-09-17T18:02:09;4.80;;;0.83;;
3755;SDS011;1893;52.526;13.360;2022-09-17T18:04:35;0.90;;;0.80;;
3755;SDS011;1893;52.526;13.360;2022-09-17T18:07:00;2.30;;;0.90;;
3755;SDS011;1893;52.526;13.360;2022-09-17T18:09:26;1.00;;;0.87;;
3755;SDS011;1893;52.526;13.360;2022-09-17T18:11:51;2.57;;;1.00;;
3755;SDS011;1893;52.526;13.360;2022-09-17T18:14:18;1.20;;;0.90;;
3755;SDS011;1893;52.526;13.360;2022-09-17T18:16:44;2.60;;;1.00;;
3755;SDS011;1893;52.526;13.360;2022-09-17T18:19:09;5.80;;;0.93;;
3755;SDS011;1893;52.526;13.360;2022-09-17T18:21:35;4.90;;;1.20;;
3755;SDS011;1893;52.526;13.360;2022-09-17T18:24:01;1.80;;;1.10;;
3755;SDS011;1893;52.526;13.360;2022-09-17T18:26:27;4.23;;;1.50;;
3755;SDS011;1893;52.526;13.360;2022-09-17T18:28:54;1.77;;;0.90;;
3755;SDS011;1893;52.526;13.360;2022-09-17T18:31:21;4.20;;;0.90;;
3755;SDS011;1893;52.526;13.360;2022-09-17T18:36:31;3.30;;;1.23;;
3755;SDS011;1893;52.526;13.360;2022-09-17T18:38:58;2.70;;;1.10;;
3755;SDS011;1893;52.526;13.360;2022-09-17T18:41:28;2.77;;;1.13;;